createdAt,value
2018-10-06T00:00:44.784Z,8.50
2018-10-06T00:03:13.738Z,8.80
2018-10-06T00:05:43.571Z,8.47
2018-10-06T00:08:13.058Z,9.23
2018-10-06T00:10:43.184Z,8.63
2018-10-06T00:13:12.620Z,9.60
2018-10-06T00:15:42.652Z,9.57
2018-10-06T00:18:12.250Z,9.37
2018-10-06T00:20:41.758Z,10.33
2018-10-06T00:23:11.581Z,9.93
2018-10-06T00:25:41.191Z,9.80
2018-10-06T00:28:10.828Z,9.70
2018-10-06T00:30:40.453Z,10.00
2018-10-06T00:33:11.012Z,9.17
2018-10-06T00:35:41.075Z,9.63
2018-10-06T00:38:10.809Z,9.83
2018-10-06T00:40:40.572Z,9.73
2018-10-06T00:43:10.189Z,10.30
2018-10-06T00:45:40.198Z,9.63
2018-10-06T00:48:10.160Z,10.10
2018-10-06T00:50:40.233Z,9.87
2018-10-06T00:53:10.041Z,9.60
2018-10-06T00:55:39.756Z,9.67
2018-10-06T00:58:09.342Z,9.63
2018-10-06T01:00:39.454Z,9.93
2018-10-06T01:03:09.910Z,10.73
2018-10-06T01:05:40.630Z,10.30
2018-10-06T01:08:10.749Z,10.03
2018-10-06T01:10:40.568Z,10.90
2018-10-06T01:13:10.597Z,9.90
2018-10-06T01:15:40.215Z,10.10
2018-10-06T01:18:09.921Z,9.87
2018-10-06T01:23:14.927Z,9.80
2018-10-06T01:25:44.701Z,9.03
2018-10-06T01:28:14.846Z,9.57
2018-10-06T01:30:45.371Z,9.57
2018-10-06T01:33:14.738Z,9.30
2018-10-06T01:35:44.045Z,9.47
2018-10-06T01:38:14.231Z,9.70
2018-10-06T01:40:44.042Z,10.20
2018-10-06T01:43:13.916Z,10.10
2018-10-06T01:45:43.935Z,8.77
2018-10-06T01:48:12.975Z,9.27
2018-10-06T01:50:43.906Z,9.10
2018-10-06T01:53:12.738Z,9.23
2018-10-06T01:55:42.758Z,9.30
2018-10-06T01:58:12.866Z,9.50
2018-10-06T02:00:42.547Z,9.00
2018-10-06T02:03:12.751Z,8.63
2018-10-06T02:05:42.592Z,9.37
2018-10-06T02:08:12.919Z,8.90
2018-10-06T02:10:42.837Z,8.67
2018-10-06T02:13:12.414Z,9.10
2018-10-06T02:15:42.640Z,9.87
2018-10-06T02:18:12.400Z,8.90
2018-10-06T02:20:42.452Z,10.03
2018-10-06T02:23:12.819Z,10.27
2018-10-06T02:25:42.665Z,10.93
2018-10-06T02:28:12.690Z,9.77
2018-10-06T02:30:41.851Z,9.87
2018-10-06T02:33:12.632Z,9.63
2018-10-06T02:35:42.623Z,10.07
2018-10-06T02:38:12.631Z,9.97
2018-10-06T02:40:42.489Z,9.30
2018-10-06T02:43:12.401Z,9.10
2018-10-06T02:45:41.641Z,9.63
2018-10-06T02:48:11.199Z,9.80
2018-10-06T02:50:41.165Z,10.80
2018-10-06T02:53:10.720Z,9.60
2018-10-06T02:55:40.915Z,9.97
2018-10-06T02:58:10.768Z,10.10
2018-10-06T03:00:39.582Z,10.53
2018-10-06T03:03:09.680Z,10.20
2018-10-06T03:05:39.538Z,10.20
2018-10-06T03:08:09.444Z,10.03
2018-10-06T03:10:39.463Z,10.30
2018-10-06T03:13:09.520Z,10.17
2018-10-06T03:15:38.986Z,10.07
2018-10-06T03:18:08.915Z,10.77
2018-10-06T03:20:38.952Z,10.73
2018-10-06T03:23:08.596Z,11.13
2018-10-06T03:25:39.193Z,11.50
2018-10-06T03:28:09.135Z,11.33
2018-10-06T03:30:39.126Z,10.67
2018-10-06T03:33:08.933Z,11.27
2018-10-06T03:35:38.405Z,11.23
2018-10-06T03:38:08.300Z,10.17
2018-10-06T03:40:38.288Z,9.77
2018-10-06T03:43:08.018Z,11.10
2018-10-06T03:45:37.475Z,10.73
2018-10-06T03:48:06.329Z,9.43
2018-10-06T03:50:36.451Z,9.57
2018-10-06T03:53:06.683Z,9.53
2018-10-06T03:55:36.726Z,9.63
2018-10-06T03:58:06.794Z,9.73
2018-10-06T04:00:36.143Z,9.90
2018-10-06T04:03:05.738Z,10.20
2018-10-06T04:05:34.889Z,9.27
2018-10-06T04:08:05.088Z,9.83
2018-10-06T04:10:35.201Z,10.20
2018-10-06T04:13:05.319Z,9.53
2018-10-06T04:15:35.511Z,9.93
2018-10-06T04:18:05.344Z,9.47
2018-10-06T04:20:35.041Z,9.53
2018-10-06T04:23:05.061Z,10.10
2018-10-06T04:25:34.883Z,11.47
2018-10-06T04:28:05.112Z,11.47
2018-10-06T04:30:34.851Z,11.23
2018-10-06T04:33:04.706Z,9.73
2018-10-06T04:35:34.475Z,10.30
2018-10-06T04:38:04.164Z,9.47
2018-10-06T04:40:34.042Z,10.27
2018-10-06T04:43:04.350Z,11.00
2018-10-06T04:45:34.205Z,9.83
2018-10-06T04:48:03.103Z,10.33
2018-10-06T04:50:32.180Z,11.17
2018-10-06T04:53:02.675Z,10.63
2018-10-06T04:55:31.870Z,10.53
2018-10-06T04:58:02.151Z,10.33
2018-10-06T05:00:31.355Z,9.83
2018-10-06T05:03:00.455Z,9.83
2018-10-06T05:05:29.871Z,9.57
2018-10-06T05:07:58.746Z,10.33
2018-10-06T05:10:27.522Z,11.10
2018-10-06T05:13:02.356Z,10.90
2018-10-06T05:15:31.368Z,10.83
2018-10-06T05:18:00.545Z,11.50
2018-10-06T05:20:29.980Z,12.13
2018-10-06T05:22:59.212Z,12.03
2018-10-06T05:25:28.217Z,11.50
2018-10-06T05:27:57.390Z,11.43
2018-10-06T05:30:26.873Z,11.30
2018-10-06T05:32:56.043Z,12.20
2018-10-06T05:35:25.447Z,13.00
2018-10-06T05:37:54.750Z,13.90
2018-10-06T05:40:23.872Z,13.03
2018-10-06T05:42:52.772Z,12.30
2018-10-06T05:45:22.122Z,12.90
2018-10-06T05:47:50.973Z,13.47
2018-10-06T05:50:19.878Z,12.80
2018-10-06T05:52:49.005Z,12.27
2018-10-06T05:55:17.988Z,11.53
2018-10-06T05:57:47.224Z,13.77
2018-10-06T06:00:16.348Z,12.90
2018-10-06T06:02:45.335Z,11.93
2018-10-06T06:05:15.559Z,12.60
2018-10-06T06:07:45.741Z,12.67
2018-10-06T06:10:14.612Z,13.33
2018-10-06T06:12:44.137Z,11.70
2018-10-06T06:15:13.087Z,12.20
2018-10-06T06:17:41.891Z,11.57
2018-10-06T06:20:11.205Z,11.97
2018-10-06T06:22:40.630Z,10.80
2018-10-06T06:25:09.795Z,11.43
2018-10-06T06:27:38.679Z,11.60
2018-10-06T06:30:07.734Z,12.33
2018-10-06T06:32:36.948Z,12.20
2018-10-06T06:35:06.073Z,12.03
2018-10-06T06:37:34.992Z,12.67
2018-10-06T06:40:03.844Z,12.93
2018-10-06T06:42:32.895Z,12.50
2018-10-06T06:45:02.024Z,11.93
2018-10-06T06:47:30.942Z,13.37
2018-10-06T06:49:59.611Z,11.07
2018-10-06T06:52:28.546Z,11.17
2018-10-06T06:54:57.503Z,10.73
2018-10-06T06:57:26.633Z,10.50
2018-10-06T06:59:55.708Z,11.23
2018-10-06T07:02:24.404Z,10.50
2018-10-06T07:04:53.136Z,10.03
2018-10-06T07:07:21.870Z,9.00
2018-10-06T07:09:50.648Z,9.57
2018-10-06T07:12:19.645Z,9.10
2018-10-06T07:14:48.643Z,9.07
2018-10-06T07:17:17.436Z,9.40
2018-10-06T07:19:46.322Z,8.60
2018-10-06T07:22:17.939Z,8.60
2018-10-06T07:24:47.163Z,8.83
2018-10-06T07:27:16.207Z,8.00
2018-10-06T07:29:45.058Z,8.67
2018-10-06T07:32:14.202Z,8.70
2018-10-06T07:34:43.314Z,8.33
2018-10-06T07:37:12.269Z,8.17
2018-10-06T07:39:41.350Z,7.63
2018-10-06T07:42:10.363Z,7.90
2018-10-06T07:44:40.227Z,7.97
2018-10-06T07:47:09.861Z,7.53
2018-10-06T07:49:38.737Z,7.83
2018-10-06T07:52:07.811Z,7.30
2018-10-06T07:54:36.649Z,7.37
2018-10-06T07:57:05.744Z,6.70
2018-10-06T07:59:34.733Z,6.93
2018-10-06T08:02:03.888Z,7.17
2018-10-06T08:04:33.469Z,7.60
2018-10-06T08:07:02.255Z,6.93
2018-10-06T08:09:30.876Z,6.00
2018-10-06T08:11:59.926Z,6.23
2018-10-06T08:14:29.847Z,6.07
2018-10-06T08:16:59.008Z,5.90
2018-10-06T08:19:29.008Z,6.47
2018-10-06T08:21:58.345Z,5.70
2018-10-06T08:24:27.774Z,6.50
2018-10-06T08:26:56.803Z,4.73
2018-10-06T08:29:25.543Z,5.13
2018-10-06T08:31:54.924Z,4.73
2018-10-06T08:34:24.275Z,6.50
2018-10-06T08:36:53.692Z,6.10
2018-10-06T08:39:23.026Z,6.03
2018-10-06T08:41:52.164Z,5.33
2018-10-06T08:44:20.934Z,5.50
2018-10-06T08:46:49.597Z,5.23
2018-10-06T08:49:18.229Z,6.00
2018-10-06T08:51:47.036Z,6.00
2018-10-06T08:54:15.840Z,5.33
2018-10-06T08:56:44.513Z,5.83
2018-10-06T08:59:13.241Z,5.07
2018-10-06T09:01:42.128Z,4.40
2018-10-06T09:04:10.778Z,4.90
2018-10-06T09:06:39.420Z,5.07
2018-10-06T09:09:08.680Z,4.80
2018-10-06T09:11:37.469Z,6.20
2018-10-06T09:14:06.158Z,5.00
2018-10-06T09:16:35.089Z,4.97
2018-10-06T09:19:03.957Z,6.03
2018-10-06T09:21:33.147Z,5.20
2018-10-06T09:24:01.871Z,3.73
2018-10-06T09:26:30.505Z,3.73
2018-10-06T09:28:59.118Z,4.30
2018-10-06T09:31:27.969Z,3.97
2018-10-06T09:33:56.804Z,4.23
2018-10-06T09:36:25.536Z,3.47
2018-10-06T09:38:54.279Z,4.40
2018-10-06T09:41:22.952Z,4.20
2018-10-06T09:43:52.178Z,3.80
2018-10-06T09:46:20.797Z,3.97
2018-10-06T09:48:49.451Z,3.73
2018-10-06T09:51:18.186Z,3.23
